Time;durP1;ratioP1;P1;durP2;ratioP2;P2;SDS_P1;SDS_P2;PMS_P1;PMS_P2;Temp;Humidity;BMP_temperature;BMP_pressure;BME280_temperature;BME280_humidity;BME280_pressure;Samples;Min_cycle;Max_cycle;Signal;HPM_P1;HPM_P2
2022/06/26 00:00:39;;;;;;;25.10;23.70;;;;;;;;;;5075656;28;20417;-73
2022/06/26 00:03:07;;;;;;;25.20;23.80;;;;;;;;;;5075526;28;20486;-73
2022/06/26 00:05:35;;;;;;;25.10;23.70;;;;;;;;;;5075697;28;20442;-73
2022/06/26 00:08:02;;;;;;;25.67;24.17;;;;;;;;;;5075773;28;20425;-73
2022/06/26 00:10:29;;;;;;;26.20;24.60;;;;;;;;;;5075398;28;20444;-73
2022/06/26 00:12:56;;;;;;;25.50;24.03;;;;;;;;;;5075810;28;20413;-73
2022/06/26 00:15:24;;;;;;;24.27;22.87;;;;;;;;;;5075483;28;20438;-73
2022/06/26 00:17:51;;;;;;;24.70;23.30;;;;;;;;;;5075759;28;20408;-73
2022/06/26 00:20:21;;;;;;;25.87;24.40;;;;;;;;;;5075654;28;20467;-73
2022/06/26 00:22:48;;;;;;;26.13;24.73;;;;;;;;;;5075647;28;20453;-73
2022/06/26 00:25:15;;;;;;;25.97;24.07;;;;;;;;;;5075232;28;20466;-73
2022/06/26 00:27:43;;;;;;;25.87;24.37;;;;;;;;;;5075180;28;20744;-73
2022/06/26 00:30:10;;;;;;;25.77;24.27;;;;;;;;;;5075183;28;20770;-73
2022/06/26 00:32:38;;;;;;;25.43;24.03;;;;;;;;;;5075106;28;20772;-73
2022/06/26 00:35:05;;;;;;;25.60;23.93;;;;;;;;;;5075472;28;20449;-73
2022/06/26 00:37:34;;;;;;;25.90;24.40;;;;;;;;;;5075335;28;20435;-73
2022/06/26 00:40:02;;;;;;;24.20;22.90;;;;;;;;;;5075348;28;20419;-73
2022/06/26 00:42:29;;;;;;;25.20;23.80;;;;;;;;;;5075068;28;20444;-73
2022/06/26 00:44:56;;;;;;;25.70;24.20;;;;;;;;;;5074457;28;20452;-73
2022/06/26 00:47:24;;;;;;;25.30;23.80;;;;;;;;;;5074598;28;20413;-73
2022/06/26 00:49:52;;;;;;;25.07;23.77;;;;;;;;;;5074827;28;20419;-73
2022/06/26 00:52:20;;;;;;;24.87;23.30;;;;;;;;;;5075154;28;20445;-73
2022/06/26 00:54:50;;;;;;;25.43;24.03;;;;;;;;;;5074885;28;20423;-73
2022/06/26 00:57:17;;;;;;;25.47;23.87;;;;;;;;;;5075112;28;20421;-74
2022/06/26 00:59:45;;;;;;;24.70;23.30;;;;;;;;;;5075094;28;20445;-74
2022/06/26 01:02:12;;;;;;;25.33;23.90;;;;;;;;;;5074436;28;20442;-73
2022/06/26 01:04:40;;;;;;;25.70;24.30;;;;;;;;;;5074891;28;20408;-74
2022/06/26 01:07:07;;;;;;;25.00;23.50;;;;;;;;;;5074316;28;20755;-73
2022/06/26 01:09:35;;;;;;;25.37;23.87;;;;;;;;;;5074881;28;20485;-73
2022/06/26 01:12:04;;;;;;;23.90;22.50;;;;;;;;;;5074500;28;20803;-73
2022/06/26 01:14:32;;;;;;;25.33;23.83;;;;;;;;;;5074689;28;20405;-73
2022/06/26 01:17:00;;;;;;;24.17;22.77;;;;;;;;;;5074334;28;20443;-73
2022/06/26 01:19:28;;;;;;;24.97;23.63;;;;;;;;;;5074660;28;20827;-73
2022/06/26 01:21:55;;;;;;;24.93;23.33;;;;;;;;;;5074510;28;20440;-73
2022/06/26 01:24:24;;;;;;;23.97;22.67;;;;;;;;;;5074520;28;20445;-73
2022/06/26 01:26:51;;;;;;;23.83;22.53;;;;;;;;;;5074199;28;20409;-73
2022/06/26 01:29:18;;;;;;;24.30;22.90;;;;;;;;;;5074079;28;20894;-73
2022/06/26 01:31:46;;;;;;;23.70;22.40;;;;;;;;;;5074283;28;20508;-73
2022/06/26 01:34:13;;;;;;;24.50;23.20;;;;;;;;;;5074247;28;20447;-73
2022/06/26 01:36:41;;;;;;;25.17;23.87;;;;;;;;;;5073767;28;20434;-73
2022/06/26 01:39:08;;;;;;;24.60;23.23;;;;;;;;;;5073887;28;20417;-73
2022/06/26 01:41:37;;;;;;;24.80;23.40;;;;;;;;;;5074099;28;20434;-73
2022/06/26 01:44:07;;;;;;;23.93;22.53;;;;;;;;;;5073611;28;20490;-73
2022/06/26 01:46:34;;;;;;;24.07;22.67;;;;;;;;;;5074096;28;20413;-73
2022/06/26 01:49:02;;;;;;;24.03;22.63;;;;;;;;;;5073690;28;20434;-73
2022/06/26 01:51:29;;;;;;;24.70;23.30;;;;;;;;;;5073909;28;20788;-73
2022/06/26 01:53:56;;;;;;;23.97;22.57;;;;;;;;;;5073866;28;20437;-73
2022/06/26 01:56:23;;;;;;;25.83;24.43;;;;;;;;;;5073752;28;20504;-73
2022/06/26 01:58:52;;;;;;;24.13;22.73;;;;;;;;;;5073856;28;20434;-73
2022/06/26 02:01:20;;;;;;;25.27;23.73;;;;;;;;;;5073360;28;20416;-73
2022/06/26 02:03:47;;;;;;;24.53;23.23;;;;;;;;;;5073654;28;20459;-73
2022/06/26 02:06:14;;;;;;;25.07;23.67;;;;;;;;;;5073558;28;20421;-73
2022/06/26 02:08:42;;;;;;;23.93;22.63;;;;;;;;;;5073654;28;20441;-73
2022/06/26 02:13:55;;;;;;;24.23;22.93;;;;;;;;;;5073356;28;20981;-73
2022/06/26 02:16:23;;;;;;;25.20;23.80;;;;;;;;;;5073061;28;20931;-73
2022/06/26 02:18:51;;;;;;;25.00;23.40;;;;;;;;;;5073139;28;20774;-71
2022/06/26 02:21:20;;;;;;;24.63;23.23;;;;;;;;;;5073313;28;20438;-72
2022/06/26 02:23:48;;;;;;;23.83;22.40;;;;;;;;;;5072979;28;20992;-73
2022/06/26 02:26:17;;;;;;;23.23;22.03;;;;;;;;;;5072985;28;20421;-73
2022/06/26 02:28:44;;;;;;;23.70;22.40;;;;;;;;;;5072951;28;20833;-73
2022/06/26 02:31:13;;;;;;;24.50;23.10;;;;;;;;;;5073231;28;20405;-73
2022/06/26 02:33:40;;;;;;;24.27;22.87;;;;;;;;;;5072849;28;20421;-73
2022/06/26 02:36:08;;;;;;;25.20;23.70;;;;;;;;;;5072899;28;20480;-73
2022/06/26 02:38:36;;;;;;;24.73;23.23;;;;;;;;;;5072718;28;20456;-73
2022/06/26 02:41:03;;;;;;;25.30;23.80;;;;;;;;;;5073048;28;20447;-74
2022/06/26 02:43:30;;;;;;;24.80;23.50;;;;;;;;;;5072592;28;20483;-73
2022/06/26 02:45:58;;;;;;;25.07;23.67;;;;;;;;;;5072981;28;20442;-73
2022/06/26 02:48:27;;;;;;;25.00;23.60;;;;;;;;;;5072764;28;20420;-73
2022/06/26 02:50:54;;;;;;;24.80;23.50;;;;;;;;;;5072677;28;20417;-73
2022/06/26 02:53:22;;;;;;;24.27;22.93;;;;;;;;;;5072706;28;20420;-73
2022/06/26 02:55:49;;;;;;;24.97;23.57;;;;;;;;;;5072997;28;20912;-73
2022/06/26 02:58:16;;;;;;;25.50;23.87;;;;;;;;;;5072615;28;20409;-73
2022/06/26 03:00:44;;;;;;;25.00;23.53;;;;;;;;;;5072490;28;20420;-73
2022/06/26 03:03:11;;;;;;;24.10;22.80;;;;;;;;;;5072416;28;20474;-73
2022/06/26 03:05:40;;;;;;;24.47;22.97;;;;;;;;;;5072807;28;20478;-73
2022/06/26 03:08:07;;;;;;;24.83;23.43;;;;;;;;;;5072185;28;20438;-73
2022/06/26 03:10:34;;;;;;;23.90;22.50;;;;;;;;;;5072131;28;20447;-73
2022/06/26 03:13:02;;;;;;;24.60;23.20;;;;;;;;;;5072421;28;20904;-73
2022/06/26 03:15:29;;;;;;;25.03;23.37;;;;;;;;;;5072721;28;20835;-73
2022/06/26 03:17:56;;;;;;;24.87;23.47;;;;;;;;;;5072758;28;20737;-73
2022/06/26 03:20:24;;;;;;;25.40;24.00;;;;;;;;;;5072659;28;20442;-73
2022/06/26 03:22:53;;;;;;;23.97;22.67;;;;;;;;;;5072334;28;20958;-73
2022/06/26 03:25:20;;;;;;;24.83;23.43;;;;;;;;;;5072673;28;20515;-73
2022/06/26 03:27:47;;;;;;;24.33;22.93;;;;;;;;;;5072422;28;20405;-73
2022/06/26 03:30:15;;;;;;;24.30;22.90;;;;;;;;;;5072241;28;20442;-74
2022/06/26 03:32:42;;;;;;;25.30;23.90;;;;;;;;;;5072667;28;20435;-75
2022/06/26 03:35:11;;;;;;;24.80;23.50;;;;;;;;;;5072529;28;20444;-75
2022/06/26 03:37:38;;;;;;;24.50;23.00;;;;;;;;;;5072098;28;20456;-74
2022/06/26 03:40:08;;;;;;;24.53;23.10;;;;;;;;;;5072471;28;20409;-73
2022/06/26 03:42:36;;;;;;;24.70;23.30;;;;;;;;;;5072173;28;20437;-73
2022/06/26 03:45:04;;;;;;;24.97;23.37;;;;;;;;;;5071861;28;20498;-75
2022/06/26 03:47:31;;;;;;;24.83;23.33;;;;;;;;;;5072178;28;20454;-75
2022/06/26 03:49:58;;;;;;;24.83;23.43;;;;;;;;;;5072376;28;20409;-75
2022/06/26 03:52:26;;;;;;;24.50;23.10;;;;;;;;;;5072400;28;20450;-75
2022/06/26 03:54:53;;;;;;;26.63;24.60;;;;;;;;;;5072307;28;20772;-75
2022/06/26 03:57:22;;;;;;;24.87;23.47;;;;;;;;;;5071974;28;20434;-75
2022/06/26 03:59:49;;;;;;;24.67;23.27;;;;;;;;;;5072227;28;20412;-75
2022/06/26 04:02:17;;;;;;;25.70;24.30;;;;;;;;;;5071925;28;20889;-75
2022/06/26 04:04:44;;;;;;;26.00;24.57;;;;;;;;;;5072235;28;20474;-75
2022/06/26 04:07:12;;;;;;;25.03;23.53;;;;;;;;;;5072073;28;20464;-75
2022/06/26 04:09:40;;;;;;;25.20;23.70;;;;;;;;;;5071750;28;20971;-75
2022/06/26 04:12:07;;;;;;;25.33;23.83;;;;;;;;;;5072201;28;20461;-75
2022/06/26 04:14:36;;;;;;;26.67;25.07;;;;;;;;;;5071844;28;20458;-75
2022/06/26 04:17:03;;;;;;;25.20;23.70;;;;;;;;;;5071851;28;20420;-75
2022/06/26 04:19:30;;;;;;;25.37;23.77;;;;;;;;;;5071695;28;20441;-75
2022/06/26 04:21:58;;;;;;;25.67;24.27;;;;;;;;;;5074345;28;20427;-75
2022/06/26 04:24:25;;;;;;;27.20;25.50;;;;;;;;;;5075544;28;20464;-75
2022/06/26 04:26:53;;;;;;;26.80;25.40;;;;;;;;;;5075519;28;20499;-75
2022/06/26 04:29:20;;;;;;;25.87;24.37;;;;;;;;;;5075302;28;20417;-75
2022/06/26 04:31:49;;;;;;;26.17;24.70;;;;;;;;;;5075065;28;20480;-75
2022/06/26 04:34:16;;;;;;;25.73;24.10;;;;;;;;;;5075193;28;20865;-75
2022/06/26 04:36:44;;;;;;;25.53;24.13;;;;;;;;;;5075101;28;20756;-75
2022/06/26 04:39:12;;;;;;;25.93;24.43;;;;;;;;;;5075355;28;20421;-75
2022/06/26 04:41:39;;;;;;;25.97;24.57;;;;;;;;;;5074874;28;20412;-75
2022/06/26 04:44:08;;;;;;;28.10;26.50;;;;;;;;;;5074948;28;20506;-75
2022/06/26 04:46:35;;;;;;;25.97;24.47;;;;;;;;;;5074956;28;20499;-75
2022/06/26 04:49:04;;;;;;;27.13;25.30;;;;;;;;;;5075132;28;20898;-75
2022/06/26 04:51:34;;;;;;;26.63;25.07;;;;;;;;;;5075061;28;20430;-75
2022/06/26 04:54:02;;;;;;;27.13;25.53;;;;;;;;;;5074832;28;20778;-77
2022/06/26 04:56:30;;;;;;;28.07;26.07;;;;;;;;;;5075061;28;20413;-76
2022/06/26 04:58:57;;;;;;;26.57;25.03;;;;;;;;;;5074589;28;20438;-75
2022/06/26 05:01:25;;;;;;;28.90;26.77;;;;;;;;;;5074766;28;20443;-75
2022/06/26 05:03:52;;;;;;;28.50;26.80;;;;;;;;;;5074797;28;20482;-75
2022/06/26 05:06:21;;;;;;;30.00;28.03;;;;;;;;;;5074271;28;20454;-75
2022/06/26 05:08:49;;;;;;;30.60;28.67;;;;;;;;;;5074813;28;20491;-75
2022/06/26 05:11:16;;;;;;;30.53;28.43;;;;;;;;;;5074272;28;20872;-75
2022/06/26 05:13:43;;;;;;;31.50;29.40;;;;;;;;;;5074705;28;20420;-76
2022/06/26 05:16:10;;;;;;;30.53;28.57;;;;;;;;;;5074238;28;20933;-75
2022/06/26 05:18:38;;;;;;;30.90;28.60;;;;;;;;;;5074287;28;20819;-75
2022/06/26 05:21:05;;;;;;;30.50;28.40;;;;;;;;;;5074185;28;20755;-75
2022/06/26 05:23:34;;;;;;;30.07;28.27;;;;;;;;;;5074365;28;20413;-75
2022/06/26 05:26:01;;;;;;;29.67;27.93;;;;;;;;;;5074100;28;20409;-75
2022/06/26 05:28:28;;;;;;;31.73;29.57;;;;;;;;;;5074103;28;20416;-75
2022/06/26 05:30:56;;;;;;;29.63;27.73;;;;;;;;;;5074337;28;20476;-75
2022/06/26 05:33:23;;;;;;;30.40;28.50;;;;;;;;;;5073588;28;20413;-75
2022/06/26 05:35:50;;;;;;;31.30;29.30;;;;;;;;;;5074236;28;20779;-75
2022/06/26 05:38:18;;;;;;;29.83;27.90;;;;;;;;;;5073713;28;20445;-75
2022/06/26 05:40:46;;;;;;;30.57;28.57;;;;;;;;;;5073771;28;20920;-75
2022/06/26 05:43:14;;;;;;;31.47;29.27;;;;;;;;;;5073946;28;20867;-75
2022/06/26 05:45:41;;;;;;;32.00;29.60;;;;;;;;;;5073930;28;20461;-76
2022/06/26 05:48:09;;;;;;;28.93;27.20;;;;;;;;;;5074036;28;20483;-76
2022/06/26 05:50:36;;;;;;;29.90;28.00;;;;;;;;;;5073646;28;20435;-77
2022/06/26 05:53:04;;;;;;;31.03;29.03;;;;;;;;;;5073905;28;20514;-76
2022/06/26 05:55:32;;;;;;;29.43;27.43;;;;;;;;;;5073537;28;20901;-76
2022/06/26 05:58:01;;;;;;;30.30;28.40;;;;;;;;;;5073446;28;20421;-76
2022/06/26 06:00:29;;;;;;;30.73;28.73;;;;;;;;;;5073306;28;20420;-76
2022/06/26 06:02:56;;;;;;;30.67;28.30;;;;;;;;;;5075742;28;20441;-76
2022/06/26 06:05:25;;;;;;;30.83;28.50;;;;;;;;;;5073367;28;20499;-76
2022/06/26 06:07:53;;;;;;;31.20;28.90;;;;;;;;;;5073172;28;20468;-76
2022/06/26 06:10:20;;;;;;;31.00;28.90;;;;;;;;;;5073096;28;20962;-76
2022/06/26 06:12:48;;;;;;;28.97;27.07;;;;;;;;;;5073491;28;20798;-76
2022/06/26 06:15:17;;;;;;;30.37;28.20;;;;;;;;;;5073182;28;20785;-76
2022/06/26 06:17:44;;;;;;;29.50;27.40;;;;;;;;;;5073433;28;20437;-76
2022/06/26 06:20:12;;;;;;;29.20;27.30;;;;;;;;;;5073002;28;20831;-75
2022/06/26 06:22:40;;;;;;;30.40;28.30;;;;;;;;;;5073023;28;20475;-75
2022/06/26 06:25:08;;;;;;;30.23;28.23;;;;;;;;;;5073322;28;20544;-75
2022/06/26 06:27:35;;;;;;;30.90;28.90;;;;;;;;;;5073331;28;20421;-76
2022/06/26 06:30:03;;;;;;;31.40;29.40;;;;;;;;;;5073184;28;20435;-75
2022/06/26 06:32:32;;;;;;;28.73;26.90;;;;;;;;;;5072949;28;20408;-75
2022/06/26 06:34:59;;;;;;;29.47;27.70;;;;;;;;;;5073102;28;20457;-75
2022/06/26 06:37:26;;;;;;;29.67;27.80;;;;;;;;;;5072830;28;20417;-75
2022/06/26 06:39:54;;;;;;;28.33;26.60;;;;;;;;;;5072812;28;20436;-74
2022/06/26 06:42:21;;;;;;;29.67;27.77;;;;;;;;;;5073012;28;20511;-75
2022/06/26 06:44:49;;;;;;;27.87;26.07;;;;;;;;;;5071838;28;20464;-74
2022/06/26 06:47:16;;;;;;;27.00;25.40;;;;;;;;;;5072780;28;20412;-74
2022/06/26 06:49:45;;;;;;;26.63;24.93;;;;;;;;;;5073009;28;20770;-74
2022/06/26 06:52:12;;;;;;;26.83;25.13;;;;;;;;;;5072981;28;20443;-74
2022/06/26 06:54:40;;;;;;;26.27;24.77;;;;;;;;;;5072866;28;20775;-74
2022/06/26 06:57:07;;;;;;;25.20;23.70;;;;;;;;;;5072758;28;20445;-74
2022/06/26 06:59:34;;;;;;;25.27;23.83;;;;;;;;;;5072580;28;20437;-74
2022/06/26 07:02:02;;;;;;;25.07;23.57;;;;;;;;;;5072730;28;20409;-75
2022/06/26 07:04:29;;;;;;;25.10;23.70;;;;;;;;;;5072577;28;20871;-74
2022/06/26 07:06:58;;;;;;;25.20;23.70;;;;;;;;;;5072709;28;20494;-75
2022/06/26 07:09:25;;;;;;;26.13;24.37;;;;;;;;;;5072423;28;20462;-75
2022/06/26 07:11:52;;;;;;;25.27;23.87;;;;;;;;;;5072642;28;20430;-75
2022/06/26 07:14:20;;;;;;;25.43;23.97;;;;;;;;;;5072674;28;20421;-74
2022/06/26 07:16:49;;;;;;;25.00;23.60;;;;;;;;;;5072440;28;20416;-74
2022/06/26 07:19:16;;;;;;;25.10;23.73;;;;;;;;;;5072461;28;20508;-75
2022/06/26 07:21:44;;;;;;;25.57;24.07;;;;;;;;;;5072685;28;20413;-74
2022/06/26 07:24:12;;;;;;;24.73;23.43;;;;;;;;;;5072669;28;20468;-76
2022/06/26 07:26:40;;;;;;;25.63;24.20;;;;;;;;;;5072711;28;20452;-74
2022/06/26 07:29:08;;;;;;;24.97;23.27;;;;;;;;;;5072654;28;20438;-74
2022/06/26 07:31:35;;;;;;;24.23;22.93;;;;;;;;;;5072201;28;20416;-73
2022/06/26 07:34:16;;;;;;;25.43;23.93;;;;;;;;;;5072212;28;20416;-73
2022/06/26 07:36:44;;;;;;;26.40;24.93;;;;;;;;;;5072345;28;20430;-77
2022/06/26 07:39:13;;;;;;;26.13;24.63;;;;;;;;;;5072015;28;20446;-78
2022/06/26 07:41:41;;;;;;;25.27;23.77;;;;;;;;;;5072112;28;20473;-74
2022/06/26 07:44:08;;;;;;;25.90;24.37;;;;;;;;;;5071873;28;20456;-76
2022/06/26 07:46:36;;;;;;;26.80;25.20;;;;;;;;;;5072448;28;20410;-75
2022/06/26 07:49:04;;;;;;;25.83;24.23;;;;;;;;;;5072421;28;20413;-78
2022/06/26 07:51:32;;;;;;;26.87;25.37;;;;;;;;;;5072283;28;20416;-81
2022/06/26 07:54:00;;;;;;;25.27;23.80;;;;;;;;;;5072046;28;20474;-80
2022/06/26 07:56:29;;;;;;;25.03;23.63;;;;;;;;;;5075584;28;20420;-75
2022/06/26 07:58:57;;;;;;;24.60;23.30;;;;;;;;;;5075642;28;20882;-73
2022/06/26 08:01:24;;;;;;;25.60;24.00;;;;;;;;;;5075681;28;20433;-74
2022/06/26 08:03:51;;;;;;;23.83;22.63;;;;;;;;;;5076005;28;20813;-79
2022/06/26 08:06:19;;;;;;;23.53;22.33;;;;;;;;;;5075700;28;20477;-75
2022/06/26 08:08:47;;;;;;;25.10;23.80;;;;;;;;;;5075926;28;20449;-78
2022/06/26 08:11:15;;;;;;;25.00;23.37;;;;;;;;;;5075918;28;20435;-79
2022/06/26 08:13:44;;;;;;;25.60;24.30;;;;;;;;;;5075800;28;20838;-73
2022/06/26 08:16:11;;;;;;;24.97;23.67;;;;;;;;;;5075688;28;20498;-74
2022/06/26 08:18:39;;;;;;;26.00;24.50;;;;;;;;;;5075829;28;20469;-73
2022/06/26 08:23:51;;;;;;;24.80;23.40;;;;;;;;;;5075337;28;21006;-73
2022/06/26 08:26:18;;;;;;;25.13;23.83;;;;;;;;;;5075264;28;20465;-73
2022/06/26 08:28:48;;;;;;;25.87;24.47;;;;;;;;;;5075329;28;20413;-80
2022/06/26 08:31:15;;;;;;;25.20;23.83;;;;;;;;;;5075475;28;20445;-74
2022/06/26 08:33:43;;;;;;;24.20;22.87;;;;;;;;;;5075439;28;20405;-77
2022/06/26 08:36:10;;;;;;;24.40;23.10;;;;;;;;;;5075472;28;20429;-79
2022/06/26 08:38:39;;;;;;;25.00;23.60;;;;;;;;;;5075363;28;20405;-78
2022/06/26 08:41:08;;;;;;;23.00;21.90;;;;;;;;;;5075010;28;20433;-75
2022/06/26 08:43:35;;;;;;;22.70;21.60;;;;;;;;;;5074981;28;20485;-75
2022/06/26 08:46:06;;;;;;;22.57;21.37;;;;;;;;;;5074832;28;20455;-72
2022/06/26 08:48:36;;;;;;;22.73;21.53;;;;;;;;;;5074949;28;20467;-79
2022/06/26 08:51:04;;;;;;;22.63;21.43;;;;;;;;;;5075066;28;20449;-82
2022/06/26 08:53:31;;;;;;;23.60;22.40;;;;;;;;;;5075214;28;20419;-81
2022/06/26 08:55:59;;;;;;;24.60;23.30;;;;;;;;;;5074973;28;20428;-76
2022/06/26 08:58:26;;;;;;;24.23;22.97;;;;;;;;;;5075085;28;20470;-82
2022/06/26 09:00:54;;;;;;;24.43;23.13;;;;;;;;;;5073851;28;20412;-81
2022/06/26 09:03:23;;;;;;;25.60;24.20;;;;;;;;;;5074800;28;20925;-77
2022/06/26 09:05:50;;;;;;;25.70;24.27;;;;;;;;;;5074879;28;20464;-77
2022/06/26 09:08:19;;;;;;;25.67;24.20;;;;;;;;;;5073881;28;20443;-75
2022/06/26 09:10:47;;;;;;;24.03;22.73;;;;;;;;;;5074764;28;20985;-75
2022/06/26 09:13:14;;;;;;;25.03;23.63;;;;;;;;;;5074470;28;20417;-74
2022/06/26 09:15:41;;;;;;;24.23;22.83;;;;;;;;;;5074019;28;20446;-76
2022/06/26 09:18:10;;;;;;;24.80;23.40;;;;;;;;;;5074637;28;20439;-75
2022/06/26 09:20:39;;;;;;;24.03;22.63;;;;;;;;;;5074634;28;20471;-78
2022/06/26 09:23:08;;;;;;;23.87;22.60;;;;;;;;;;5074557;28;20434;-75
2022/06/26 09:25:36;;;;;;;23.97;22.43;;;;;;;;;;5074278;28;20496;-74
2022/06/26 09:28:07;;;;;;;24.63;23.10;;;;;;;;;;5073963;28;20810;-75
2022/06/26 09:30:34;;;;;;;24.93;23.50;;;;;;;;;;5074336;28;20434;-75
2022/06/26 09:33:02;;;;;;;25.37;23.73;;;;;;;;;;5074084;28;20491;-75
2022/06/26 09:35:30;;;;;;;26.00;24.60;;;;;;;;;;5073927;28;20445;-76
2022/06/26 09:38:01;;;;;;;25.33;23.77;;;;;;;;;;5074141;28;20809;-75
2022/06/26 09:40:28;;;;;;;25.40;24.00;;;;;;;;;;5074238;28;20412;-75
2022/06/26 09:42:56;;;;;;;26.23;24.83;;;;;;;;;;5073611;28;20482;-75
2022/06/26 09:45:23;;;;;;;25.43;24.03;;;;;;;;;;5074014;28;20501;-75
2022/06/26 09:47:51;;;;;;;27.40;25.80;;;;;;;;;;5073694;28;20420;-75
2022/06/26 09:50:19;;;;;;;27.37;25.77;;;;;;;;;;5073677;28;20789;-75
2022/06/26 09:52:46;;;;;;;26.53;25.03;;;;;;;;;;5073992;28;20470;-75
2022/06/26 09:55:15;;;;;;;25.20;23.63;;;;;;;;;;5073940;28;20504;-75
2022/06/26 09:57:44;;;;;;;25.83;24.40;;;;;;;;;;5073457;28;20928;-75
2022/06/26 10:00:12;;;;;;;27.13;25.07;;;;;;;;;;5073613;28;20412;-75
2022/06/26 10:08:11;;;;;;;26.27;24.77;;;;;;;;;;5073270;28;20402;-76
2022/06/26 10:10:43;;;;;;;28.70;27.10;;;;;;;;;;5073609;28;20437;-75
2022/06/26 10:13:11;;;;;;;28.90;27.10;;;;;;;;;;5073214;28;20457;-75
2022/06/26 10:15:42;;;;;;;29.57;27.77;;;;;;;;;;5073227;28;20522;-75
2022/06/26 10:18:22;;;;;;;30.10;28.30;;;;;;;;;;5073456;28;20409;-75
2022/06/26 10:20:49;;;;;;;30.60;28.80;;;;;;;;;;5073400;28;20792;-76
2022/06/26 10:23:31;;;;;;;29.93;28.13;;;;;;;;;;5073390;28;20409;-75
2022/06/26 10:26:00;;;;;;;30.47;28.60;;;;;;;;;;5073363;28;20457;-75
2022/06/26 10:28:27;;;;;;;31.33;29.53;;;;;;;;;;5073287;28;20408;-75
2022/06/26 10:30:54;;;;;;;30.37;28.57;;;;;;;;;;5072890;28;20927;-75
2022/06/26 10:33:22;;;;;;;29.90;28.10;;;;;;;;;;5073252;28;20637;-76
2022/06/26 10:35:50;;;;;;;30.87;28.97;;;;;;;;;;5073234;28;20401;-75
2022/06/26 10:38:19;;;;;;;31.03;29.03;;;;;;;;;;5072712;28;20413;-75
2022/06/26 10:43:41;;;;;;;30.47;28.67;;;;;;;;;;5072727;28;20451;-75
2022/06/26 10:46:08;;;;;;;31.30;29.50;;;;;;;;;;5073042;28;20477;-76
2022/06/26 10:48:37;;;;;;;30.70;28.90;;;;;;;;;;5073078;28;20415;-75
2022/06/26 10:51:05;;;;;;;34.53;32.30;;;;;;;;;;5072983;28;20845;-75
2022/06/26 10:53:32;;;;;;;32.60;30.60;;;;;;;;;;5072745;28;20406;-75
2022/06/26 10:56:00;;;;;;;31.83;29.83;;;;;;;;;;5072886;28;20413;-75
2022/06/26 10:58:28;;;;;;;30.80;29.00;;;;;;;;;;5072994;28;20438;-74
2022/06/26 11:00:59;;;;;;;32.20;30.40;;;;;;;;;;5072847;28;20420;-75
2022/06/26 11:03:27;;;;;;;33.10;31.20;;;;;;;;;;5072590;28;20445;-75
2022/06/26 11:05:55;;;;;;;33.07;31.07;;;;;;;;;;5072802;28;20482;-75
2022/06/26 11:08:27;;;;;;;32.37;30.37;;;;;;;;;;5072410;28;20441;-77
2022/06/26 11:10:54;;;;;;;32.20;30.10;;;;;;;;;;5072438;28;20436;-75
2022/06/26 11:13:21;;;;;;;30.10;28.40;;;;;;;;;;5072455;28;20806;-75
2022/06/26 11:15:49;;;;;;;31.00;29.10;;;;;;;;;;5072795;28;20420;-78
2022/06/26 11:18:17;;;;;;;30.17;28.37;;;;;;;;;;5072728;28;20475;-77
2022/06/26 11:20:50;;;;;;;30.93;28.93;;;;;;;;;;5072724;28;20496;-75
2022/06/26 11:23:22;;;;;;;29.70;28.00;;;;;;;;;;5072762;28;20517;-76
2022/06/26 11:25:50;;;;;;;29.13;27.43;;;;;;;;;;5072290;28;20453;-77
2022/06/26 11:28:18;;;;;;;29.90;28.10;;;;;;;;;;5072333;28;20446;-76
2022/06/26 11:30:47;;;;;;;28.70;26.90;;;;;;;;;;5074533;28;20417;-75
2022/06/26 11:33:14;;;;;;;31.40;29.50;;;;;;;;;;5076416;28;20435;-76
2022/06/26 11:35:43;;;;;;;31.47;29.57;;;;;;;;;;5076404;28;20919;-75
2022/06/26 11:38:13;;;;;;;31.70;29.83;;;;;;;;;;5076214;28;20441;-75
2022/06/26 11:40:41;;;;;;;30.73;28.83;;;;;;;;;;5076194;28;20473;-76
2022/06/26 11:43:09;;;;;;;29.87;28.17;;;;;;;;;;5076150;28;20459;-76
2022/06/26 11:45:37;;;;;;;30.03;28.20;;;;;;;;;;5076421;28;20436;-75
2022/06/26 11:48:07;;;;;;;29.67;27.80;;;;;;;;;;5076150;28;20416;-75
2022/06/26 11:50:35;;;;;;;30.43;28.63;;;;;;;;;;5076026;28;20435;-76
2022/06/26 11:53:04;;;;;;;31.30;29.33;;;;;;;;;;5076025;28;20887;-75
2022/06/26 11:55:32;;;;;;;30.43;28.63;;;;;;;;;;5076375;28;20781;-75
2022/06/26 11:58:02;;;;;;;30.20;28.50;;;;;;;;;;5076145;28;20442;-75
2022/06/26 12:00:29;;;;;;;30.00;28.20;;;;;;;;;;5075809;28;20904;-75
2022/06/26 12:02:56;;;;;;;29.17;27.47;;;;;;;;;;5076025;28;20454;-75
2022/06/26 12:05:25;;;;;;;30.33;28.30;;;;;;;;;;5075716;28;20417;-76
2022/06/26 12:07:53;;;;;;;30.97;29.17;;;;;;;;;;5075866;28;20488;-75
2022/06/26 12:10:28;;;;;;;29.90;28.10;;;;;;;;;;5075829;28;20448;-75
2022/06/26 12:12:56;;;;;;;28.70;27.00;;;;;;;;;;5075998;28;20452;-75
2022/06/26 12:15:24;;;;;;;29.83;28.03;;;;;;;;;;5075875;28;20461;-76
2022/06/26 12:17:57;;;;;;;30.00;28.20;;;;;;;;;;5075575;28;20753;-75
2022/06/26 12:20:24;;;;;;;32.27;30.30;;;;;;;;;;5075710;28;20420;-76
2022/06/26 12:22:52;;;;;;;32.20;30.20;;;;;;;;;;5075812;28;20417;-75
2022/06/26 12:25:28;;;;;;;31.83;29.93;;;;;;;;;;5075412;28;20420;-76
2022/06/26 12:27:56;;;;;;;30.70;28.70;;;;;;;;;;5075616;28;20857;-75
2022/06/26 12:30:25;;;;;;;30.87;28.97;;;;;;;;;;5075117;28;20405;-75
2022/06/26 12:32:52;;;;;;;30.50;28.50;;;;;;;;;;5075317;28;20442;-74
2022/06/26 12:35:19;;;;;;;29.80;28.10;;;;;;;;;;5075507;28;20409;-75
2022/06/26 12:37:47;;;;;;;29.47;27.57;;;;;;;;;;5074994;28;20469;-75
2022/06/26 12:40:14;;;;;;;29.70;28.00;;;;;;;;;;5075080;28;20891;-75
2022/06/26 12:42:43;;;;;;;30.50;28.60;;;;;;;;;;5074070;28;20420;-75
2022/06/26 12:45:10;;;;;;;29.60;27.80;;;;;;;;;;5074997;28;20894;-75
2022/06/26 12:47:38;;;;;;;29.53;27.83;;;;;;;;;;5074904;28;20483;-75
2022/06/26 12:50:06;;;;;;;29.17;27.47;;;;;;;;;;5074596;28;20428;-75
2022/06/26 12:52:34;;;;;;;29.07;27.37;;;;;;;;;;5075213;28;20439;-75
2022/06/26 12:55:01;;;;;;;28.90;27.10;;;;;;;;;;5074849;28;20454;-75
2022/06/26 12:57:28;;;;;;;29.60;27.83;;;;;;;;;;5075075;28;20895;-75
2022/06/26 12:59:57;;;;;;;28.87;27.17;;;;;;;;;;5074674;28;20413;-76
2022/06/26 13:02:25;;;;;;;30.53;28.73;;;;;;;;;;5074754;28;20817;-75
2022/06/26 13:04:52;;;;;;;29.80;28.07;;;;;;;;;;5074953;28;20497;-75
2022/06/26 13:07:20;;;;;;;30.10;28.30;;;;;;;;;;5074402;28;20484;-75
2022/06/26 13:09:48;;;;;;;29.00;27.30;;;;;;;;;;5074830;28;20460;-75
2022/06/26 13:12:15;;;;;;;29.23;27.43;;;;;;;;;;5074554;28;21204;-75
2022/06/26 13:14:44;;;;;;;28.13;26.53;;;;;;;;;;5074600;28;20471;-75
2022/06/26 13:17:13;;;;;;;28.67;26.97;;;;;;;;;;5074604;28;20438;-75
2022/06/26 13:19:40;;;;;;;28.40;26.77;;;;;;;;;;5074698;28;20480;-75
2022/06/26 13:22:08;;;;;;;29.57;27.77;;;;;;;;;;5074672;28;20417;-75
2022/06/26 13:24:35;;;;;;;28.43;26.73;;;;;;;;;;5074713;28;20445;-75
2022/06/26 13:27:03;;;;;;;29.97;28.17;;;;;;;;;;5074523;28;20460;-75
2022/06/26 13:29:30;;;;;;;29.63;27.80;;;;;;;;;;5074174;28;20413;-75
2022/06/26 13:31:58;;;;;;;30.20;28.40;;;;;;;;;;5074183;28;20410;-75
2022/06/26 13:34:27;;;;;;;29.80;28.00;;;;;;;;;;5074426;28;20484;-75
2022/06/26 13:36:54;;;;;;;29.53;27.73;;;;;;;;;;5074223;28;20442;-75
2022/06/26 13:39:21;;;;;;;29.30;27.60;;;;;;;;;;5073923;28;20418;-75
2022/06/26 13:41:49;;;;;;;28.47;26.77;;;;;;;;;;5073862;28;20421;-75
2022/06/26 13:44:16;;;;;;;29.40;27.60;;;;;;;;;;5073841;28;20483;-75
2022/06/26 13:46:43;;;;;;;28.20;26.40;;;;;;;;;;5073802;28;20466;-75
2022/06/26 13:49:11;;;;;;;29.50;27.80;;;;;;;;;;5074025;28;20430;-75
2022/06/26 13:51:40;;;;;;;29.73;27.93;;;;;;;;;;5073713;28;20546;-75
2022/06/26 13:54:08;;;;;;;29.07;27.27;;;;;;;;;;5073760;28;20845;-75
2022/06/26 13:56:35;;;;;;;30.30;28.50;;;;;;;;;;5073657;28;20417;-75
2022/06/26 13:59:03;;;;;;;29.60;27.67;;;;;;;;;;5073830;28;20411;-75
2022/06/26 14:01:30;;;;;;;29.40;27.60;;;;;;;;;;5073553;28;20447;-75
2022/06/26 14:03:57;;;;;;;29.67;27.87;;;;;;;;;;5072133;28;20444;-74
2022/06/26 14:06:25;;;;;;;29.13;27.43;;;;;;;;;;5073271;28;20412;-74
2022/06/26 14:08:54;;;;;;;28.30;26.50;;;;;;;;;;5073643;28;20474;-75
2022/06/26 14:11:21;;;;;;;28.17;26.57;;;;;;;;;;5073571;28;20417;-75
2022/06/26 14:13:48;;;;;;;28.87;27.13;;;;;;;;;;5073293;28;20419;-75
2022/06/26 14:16:16;;;;;;;28.57;26.87;;;;;;;;;;5073529;28;20442;-75
2022/06/26 14:18:43;;;;;;;29.67;27.87;;;;;;;;;;5072668;28;20441;-74
2022/06/26 14:21:10;;;;;;;28.63;26.93;;;;;;;;;;5073462;28;20504;-75
2022/06/26 14:26:24;;;;;;;27.90;26.23;;;;;;;;;;5073072;28;20421;-75
2022/06/26 14:28:52;;;;;;;28.40;26.70;;;;;;;;;;5073344;28;20413;-75
2022/06/26 14:31:19;;;;;;;28.63;26.87;;;;;;;;;;5073170;28;20419;-75
2022/06/26 14:33:46;;;;;;;29.07;27.27;;;;;;;;;;5072578;28;20437;-75
2022/06/26 14:36:14;;;;;;;28.47;26.77;;;;;;;;;;5072768;28;20438;-75